PWSweather.com
Personal Weather Stations
Station Observations
KWALONGB2
81st Sandridge Rd., Long Beach, WA 98631

81st Sandridge Rd.Long Beach, WA 98631

Lat: 46.36, Lon: -124.03

Elevation: 7

Station Type: Davis Vantage Pro2

http://www.642weather.com/weather/

Latest ConditionsUpdated 11:50:00 PM PST Wednesday, Dec 11, 2019
Currently Today's Max Today's Min Today's Average
Temperature 58.0°F14.4°C 58.0°F14.4°C 49.6°F9.8°C 51.4°F10.8°C
Dew Point 58.0°F14.4°C 58.0°F14.4°C -28.1°F-33.4°C 43.7°F6.5°C
Winds 2.3 mph NNW3.7 kmh NNW 16.1 mph -25.9 kmh - - 6.4 mph 10.3 kmh
Wind Gusts 10.4 mph16.7 kmh 20.7 mph33.3 kmh - -
Humidity 100% 100% 3% 90%
Pressure 29.85 in1010.8 mb 30.05 in1017.6 mb 29.75 in1007.5 mb -
Precipitation - 0.75 in19.1 mm - -
Hour Temp Dew Point Humidity Winds Wind Gusts Pressure Precip Precip Rate Daily Precip Total
11:50 PM 58.0°F14.4°C 58.0°F14.4°C 100% 2.3 mph NNW3.7 kmh NNW 10.4 mph16.7 kmh 29.85 in1010.8 mb - 0.00 in0.0 mm 0.75 in19.1 mm
11:40 PM 58.0°F14.4°C 58.0°F14.4°C 100% 4.6 mph NW7.4 kmh NW 8.1 mph13.0 kmh 29.85 in1010.8 mb - 0.00 in0.0 mm 0.75 in19.1 mm
11:30 PM 58.0°F14.4°C 58.0°F14.4°C 100% 2.3 mph NW3.7 kmh NW 5.8 mph9.3 kmh 29.84 in1010.5 mb - 0.00 in0.0 mm 0.75 in19.1 mm
11:20 PM 58.0°F14.4°C 58.0°F14.4°C 100% 4.6 mph NNW7.4 kmh NNW 9.2 mph14.8 kmh 29.84 in1010.5 mb - 0.00 in0.0 mm 0.75 in19.1 mm
11:10 PM 58.0°F14.4°C 58.0°F14.4°C 100% 5.8 mph NNW9.3 kmh NNW 6.9 mph11.1 kmh 29.83 in1010.2 mb - 0.00 in0.0 mm 0.75 in19.1 mm
11:00 PM 58.0°F14.4°C 58.0°F14.4°C 100% 3.5 mph NW5.6 kmh NW 9.2 mph14.8 kmh 29.83 in1010.2 mb - 0.00 in0.0 mm 0.75 in19.1 mm
10:50 PM 58.0°F14.4°C 58.0°F14.4°C 100% 3.5 mph NW5.6 kmh NW 8.1 mph13.0 kmh 29.82 in1009.8 mb - 0.00 in0.0 mm 0.75 in19.1 mm
10:40 PM 52.7°F11.5°C 51.8°F11.0°C 97% 4.6 mph NW7.4 kmh NW 11.5 mph18.5 kmh 29.82 in1009.8 mb - 0.00 in0.0 mm 0.75 in19.1 mm
10:30 PM 52.7°F11.5°C 51.8°F11.0°C 97% 4.6 mph NW7.4 kmh NW 11.5 mph18.5 kmh 29.81 in1009.5 mb - 0.01 in0.3 mm 0.75 in19.1 mm
10:20 PM 52.7°F11.5°C 51.8°F11.0°C 97% 5.8 mph NNW9.3 kmh NNW 8.1 mph13.0 kmh 29.80 in1009.1 mb - 0.01 in0.3 mm 0.75 in19.1 mm
10:10 PM 52.7°F11.5°C 51.8°F11.0°C 97% 4.6 mph NNW7.4 kmh NNW 10.4 mph16.7 kmh 29.80 in1009.1 mb - 0.01 in0.3 mm 0.75 in19.1 mm
10:00 PM 52.7°F11.5°C 51.8°F11.0°C 97% 3.5 mph NNW5.6 kmh NNW 10.4 mph16.7 kmh 29.79 in1008.8 mb - 0.01 in0.3 mm 0.75 in19.1 mm
09:50 PM 52.7°F11.5°C 51.8°F11.0°C 97% 3.5 mph NNW5.6 kmh NNW 9.2 mph14.8 kmh 29.79 in1008.8 mb - 0.02 in0.5 mm 0.75 in19.1 mm
09:40 PM 52.7°F11.5°C 51.8°F11.0°C 97% 6.9 mph NNW11.1 kmh NNW 11.5 mph18.5 kmh 29.78 in1008.5 mb - 0.04 in1.0 mm 0.75 in19.1 mm
09:30 PM 52.7°F11.5°C 51.8°F11.0°C 97% 5.8 mph NNW9.3 kmh NNW 10.4 mph16.7 kmh 29.77 in1008.1 mb - 0.03 in0.8 mm 0.74 in18.8 mm
09:20 PM 50.5°F10.3°C 50.5°F10.3°C 100% 4.6 mph NNW7.4 kmh NNW 6.9 mph11.1 kmh 29.77 in1008.1 mb - 0.03 in0.8 mm 0.74 in18.8 mm
09:10 PM 50.5°F10.3°C 50.5°F10.3°C 100% 5.8 mph NNW9.3 kmh NNW 13.8 mph22.2 kmh 29.77 in1008.1 mb - 0.04 in1.0 mm 0.74 in18.8 mm
09:00 PM 50.5°F10.3°C 50.5°F10.3°C 100% 8.1 mph NNW13.0 kmh NNW 17.3 mph27.8 kmh 29.76 in1007.8 mb - 0.04 in1.0 mm 0.74 in18.8 mm
08:50 PM 50.5°F10.3°C 50.5°F10.3°C 100% 3.5 mph SW5.6 kmh SW 8.1 mph13.0 kmh 29.76 in1007.8 mb - 0.03 in0.8 mm 0.73 in18.5 mm
08:40 PM 50.5°F10.3°C 50.5°F10.3°C 100% 1.2 mph WSW1.9 kmh WSW 3.5 mph5.6 kmh 29.75 in1007.5 mb - 0.02 in0.5 mm 0.71 in18.0 mm
08:30 PM 50.5°F10.3°C 50.5°F10.3°C 100% 6.9 mph NNW11.1 kmh NNW 15.0 mph24.1 kmh 29.75 in1007.5 mb - 0.02 in0.5 mm 0.71 in18.0 mm
08:20 PM 50.5°F10.3°C 50.5°F10.3°C 100% 8.1 mph NW13.0 kmh NW 11.5 mph18.5 kmh 29.75 in1007.5 mb - 0.04 in1.0 mm 0.71 in18.0 mm
08:10 PM 50.5°F10.3°C 50.5°F10.3°C 100% 8.1 mph NNW13.0 kmh NNW 13.8 mph22.2 kmh 29.76 in1007.8 mb - 0.06 in1.5 mm 0.71 in18.0 mm
08:00 PM 50.5°F10.3°C 50.5°F10.3°C 100% 9.2 mph NNW14.8 kmh NNW 11.5 mph18.5 kmh 29.76 in1007.8 mb - 0.06 in1.5 mm 0.70 in17.8 mm
07:50 PM 50.5°F10.3°C 43.2°F6.2°C 76% 10.4 mph NNW16.7 kmh NNW 11.5 mph18.5 kmh 29.75 in1007.5 mb - 0.07 in1.8 mm 0.70 in17.8 mm
07:40 PM 50.5°F10.3°C -27.9°F-33.3°C 3% 5.8 mph NNW9.3 kmh NNW 11.5 mph18.5 kmh 29.76 in1007.8 mb - 0.07 in1.8 mm 0.69 in17.5 mm
07:30 PM 50.5°F10.3°C -27.9°F-33.3°C 3% 11.5 mph NNW18.5 kmh NNW 17.3 mph27.8 kmh 29.75 in1007.5 mb - 0.09 in2.3 mm 0.69 in17.5 mm
07:20 PM 49.6°F9.8°C 49.6°F9.8°C 100% 9.2 mph NNW14.8 kmh NNW 12.7 mph20.4 kmh 29.76 in1007.8 mb - 0.07 in1.8 mm 0.67 in17.0 mm
07:10 PM 50.2°F10.1°C -28.1°F-33.4°C 3% 9.2 mph N14.8 kmh N 16.1 mph25.9 kmh 29.76 in1007.8 mb - 0.08 in2.0 mm 0.66 in16.8 mm
07:00 PM 50.2°F10.1°C -28.1°F-33.4°C 3% 10.4 mph NW16.7 kmh NW 17.3 mph27.8 kmh 29.76 in1007.8 mb - 0.10 in2.5 mm 0.64 in16.3 mm
06:50 PM 50.2°F10.1°C -28.1°F-33.4°C 3% 9.2 mph NNW14.8 kmh NNW 15.0 mph24.1 kmh 29.76 in1007.8 mb - 0.11 in2.8 mm 0.63 in16.0 mm
06:40 PM 50.2°F10.1°C -28.1°F-33.4°C 3% 10.4 mph NNW16.7 kmh NNW 20.7 mph33.3 kmh 29.76 in1007.8 mb - 0.11 in2.8 mm 0.62 in15.7 mm
06:30 PM 50.2°F10.1°C -28.1°F-33.4°C 3% 9.2 mph NNW14.8 kmh NNW 15.0 mph24.1 kmh 29.77 in1008.1 mb - 0.13 in3.3 mm 0.61 in15.5 mm
06:20 PM 50.2°F10.1°C -28.1°F-33.4°C 3% 11.5 mph NNW18.5 kmh NNW 16.1 mph25.9 kmh 29.77 in1008.1 mb - 0.18 in4.6 mm 0.60 in15.2 mm
06:10 PM 50.2°F10.1°C -28.1°F-33.4°C 3% 9.2 mph NNW14.8 kmh NNW 19.6 mph31.5 kmh 29.77 in1008.1 mb - 0.21 in5.3 mm 0.59 in15.0 mm
06:00 PM 50.2°F10.1°C -6.6°F-21.4°C 9% 11.5 mph NNW18.5 kmh NNW 19.6 mph31.5 kmh 29.78 in1008.5 mb - 0.22 in5.6 mm 0.55 in14.0 mm
05:50 PM 50.2°F10.1°C 49.1°F9.5°C 96% 11.5 mph NNW18.5 kmh NNW 18.4 mph29.6 kmh 29.79 in1008.8 mb - 0.24 in6.1 mm 0.53 in13.5 mm
05:40 PM 50.2°F10.1°C 49.1°F9.5°C 96% 16.1 mph NNW25.9 kmh NNW 18.4 mph29.6 kmh 29.79 in1008.8 mb - 0.24 in6.1 mm 0.51 in13.0 mm
05:30 PM 50.2°F10.1°C 49.1°F9.5°C 96% 9.2 mph NNW14.8 kmh NNW 15.0 mph24.1 kmh 29.80 in1009.1 mb - 0.23 in5.8 mm 0.49 in12.4 mm
05:20 PM 50.2°F10.1°C 49.1°F9.5°C 96% 9.2 mph NNW14.8 kmh NNW 16.1 mph25.9 kmh 29.81 in1009.5 mb - 0.19 in4.8 mm 0.44 in11.2 mm
05:10 PM 50.2°F10.1°C 49.1°F9.5°C 96% 9.2 mph N14.8 kmh N 16.1 mph25.9 kmh 29.81 in1009.5 mb - 0.13 in3.3 mm 0.38 in9.7 mm
05:00 PM 50.2°F10.1°C 49.1°F9.5°C 96% 15.0 mph NNW24.1 kmh NNW 18.4 mph29.6 kmh 29.80 in1009.1 mb - 0.09 in2.3 mm 0.34 in8.6 mm
04:50 PM 50.2°F10.1°C 49.1°F9.5°C 96% 12.7 mph NNW20.4 kmh NNW 20.7 mph33.3 kmh 29.80 in1009.1 mb - 0.06 in1.5 mm 0.29 in7.4 mm
04:40 PM 50.2°F10.1°C 49.1°F9.5°C 96% 6.9 mph NW11.1 kmh NW 12.7 mph20.4 kmh 29.80 in1009.1 mb - 0.05 in1.3 mm 0.27 in6.9 mm
04:30 PM 50.2°F10.1°C 49.1°F9.5°C 96% 5.8 mph NNW9.3 kmh NNW 11.5 mph18.5 kmh 29.81 in1009.5 mb - 0.05 in1.3 mm 0.26 in6.6 mm
04:20 PM 50.2°F10.1°C 49.1°F9.5°C 96% 5.8 mph NNW9.3 kmh NNW 15.0 mph24.1 kmh 29.81 in1009.5 mb - 0.06 in1.5 mm 0.25 in6.4 mm
04:10 PM 50.2°F10.1°C 49.1°F9.5°C 96% 10.4 mph NNW16.7 kmh NNW 12.7 mph20.4 kmh 29.82 in1009.8 mb - 0.08 in2.0 mm 0.25 in6.4 mm
04:00 PM 50.2°F10.1°C 49.1°F9.5°C 96% 8.1 mph NNW13.0 kmh NNW 13.8 mph22.2 kmh 29.83 in1010.2 mb - 0.08 in2.0 mm 0.25 in6.4 mm
03:50 PM 50.2°F10.1°C 49.1°F9.5°C 96% 3.5 mph NNW5.6 kmh NNW 5.8 mph9.3 kmh 29.84 in1010.5 mb - 0.07 in1.8 mm 0.23 in5.8 mm
03:40 PM 50.2°F10.1°C 49.1°F9.5°C 96% 5.8 mph NNW9.3 kmh NNW 8.1 mph13.0 kmh 29.84 in1010.5 mb - 0.06 in1.5 mm 0.22 in5.6 mm
03:30 PM 50.2°F10.1°C 49.1°F9.5°C 96% 3.5 mph NNW5.6 kmh NNW 8.1 mph13.0 kmh 29.84 in1010.5 mb - 0.06 in1.5 mm 0.21 in5.3 mm
03:20 PM 50.2°F10.1°C 49.1°F9.5°C 96% 5.8 mph NW9.3 kmh NW 12.7 mph20.4 kmh 29.84 in1010.5 mb - 0.05 in1.3 mm 0.20 in5.1 mm
03:10 PM 50.2°F10.1°C 49.1°F9.5°C 96% 8.1 mph NW13.0 kmh NW 10.4 mph16.7 kmh 29.85 in1010.8 mb - 0.03 in0.8 mm 0.17 in4.3 mm
03:00 PM 50.2°F10.1°C 49.1°F9.5°C 96% 9.2 mph NW14.8 kmh NW 16.1 mph25.9 kmh 29.85 in1010.8 mb - 0.03 in0.8 mm 0.17 in4.3 mm
02:50 PM 50.2°F10.1°C 49.1°F9.5°C 96% 9.2 mph NNW14.8 kmh NNW 15.0 mph24.1 kmh 29.85 in1010.8 mb - 0.03 in0.8 mm 0.17 in4.3 mm
02:40 PM 50.2°F10.1°C 49.1°F9.5°C 96% 9.2 mph NNW14.8 kmh NNW 19.6 mph31.5 kmh 29.86 in1011.2 mb - 0.03 in0.8 mm 0.16 in4.1 mm
02:30 PM 50.2°F10.1°C 49.1°F9.5°C 96% 10.4 mph NNW16.7 kmh NNW 13.8 mph22.2 kmh 29.86 in1011.2 mb - 0.02 in0.5 mm 0.15 in3.8 mm
02:20 PM 50.2°F10.1°C 49.1°F9.5°C 96% 8.1 mph NW13.0 kmh NW 11.5 mph18.5 kmh 29.87 in1011.5 mb - 0.02 in0.5 mm 0.15 in3.8 mm
02:10 PM 50.2°F10.1°C 49.1°F9.5°C 96% 6.9 mph NNW11.1 kmh NNW 11.5 mph18.5 kmh 29.87 in1011.5 mb - 0.02 in0.5 mm 0.14 in3.6 mm
02:00 PM 50.2°F10.1°C 49.1°F9.5°C 96% 5.8 mph NNW9.3 kmh NNW 6.9 mph11.1 kmh 29.87 in1011.5 mb - 0.03 in0.8 mm 0.14 in3.6 mm
01:50 PM 50.2°F10.1°C 49.1°F9.5°C 96% 6.9 mph NW11.1 kmh NW 5.8 mph9.3 kmh 29.88 in1011.9 mb - 0.03 in0.8 mm 0.14 in3.6 mm
01:40 PM 51.4°F10.8°C -27.3°F-32.9°C 3% 5.8 mph NNW9.3 kmh NNW 9.2 mph14.8 kmh 29.89 in1012.2 mb - 0.03 in0.8 mm 0.13 in3.3 mm
01:30 PM 51.4°F10.8°C -27.3°F-32.9°C 3% 6.9 mph NNW11.1 kmh NNW 11.5 mph18.5 kmh 29.89 in1012.2 mb - 0.03 in0.8 mm 0.13 in3.3 mm
01:20 PM 51.4°F10.8°C -27.3°F-32.9°C 3% 5.8 mph NNW9.3 kmh NNW 11.5 mph18.5 kmh 29.89 in1012.2 mb - 0.03 in0.8 mm 0.13 in3.3 mm
01:10 PM 51.4°F10.8°C -27.3°F-32.9°C 3% 6.9 mph NNW11.1 kmh NNW 15.0 mph24.1 kmh 29.90 in1012.5 mb - 0.02 in0.5 mm 0.12 in3.0 mm
01:00 PM 51.4°F10.8°C 51.4°F10.8°C 100% 6.9 mph NNW11.1 kmh NNW 15.0 mph24.1 kmh 29.90 in1012.5 mb - 0.02 in0.5 mm 0.12 in3.0 mm
12:50 PM 51.4°F10.8°C 51.4°F10.8°C 100% 6.9 mph NNW11.1 kmh NNW 11.5 mph18.5 kmh 29.91 in1012.9 mb - 0.01 in0.3 mm 0.11 in2.8 mm
12:40 PM 51.4°F10.8°C 51.4°F10.8°C 100% 9.2 mph NNW14.8 kmh NNW 12.7 mph20.4 kmh 29.91 in1012.9 mb - 0.00 in0.0 mm 0.10 in2.5 mm
12:30 PM 51.4°F10.8°C 51.4°F10.8°C 100% 6.9 mph NNW11.1 kmh NNW 18.4 mph29.6 kmh 29.91 in1012.9 mb - 0.00 in0.0 mm 0.10 in2.5 mm
12:20 PM 51.4°F10.8°C 51.4°F10.8°C 100% 6.9 mph NNW11.1 kmh NNW 12.7 mph20.4 kmh 29.91 in1012.9 mb - 0.00 in0.0 mm 0.10 in2.5 mm
12:10 PM 51.4°F10.8°C 51.4°F10.8°C 100% 9.2 mph NNW14.8 kmh NNW 10.4 mph16.7 kmh 29.92 in1013.2 mb - 0.00 in0.0 mm 0.10 in2.5 mm
12:00 PM 51.4°F10.8°C 51.4°F10.8°C 100% 8.1 mph NNW13.0 kmh NNW 12.7 mph20.4 kmh 29.92 in1013.2 mb - 0.00 in0.0 mm 0.10 in2.5 mm
11:50 AM 51.4°F10.8°C 51.4°F10.8°C 100% 10.4 mph NNW16.7 kmh NNW 13.8 mph22.2 kmh 29.93 in1013.5 mb - 0.00 in0.0 mm 0.10 in2.5 mm
11:40 AM 51.4°F10.8°C 51.4°F10.8°C 100% 9.2 mph NW14.8 kmh NW 13.8 mph22.2 kmh 29.93 in1013.5 mb - 0.00 in0.0 mm 0.10 in2.5 mm
11:30 AM 51.4°F10.8°C 51.4°F10.8°C 100% 5.8 mph NW9.3 kmh NW 9.2 mph14.8 kmh 29.94 in1013.9 mb - 0.00 in0.0 mm 0.10 in2.5 mm
11:20 AM 51.4°F10.8°C 51.4°F10.8°C 100% 4.6 mph N7.4 kmh N 9.2 mph14.8 kmh 29.94 in1013.9 mb - 0.00 in0.0 mm 0.10 in2.5 mm
11:10 AM 51.4°F10.8°C 51.4°F10.8°C 100% 4.6 mph NNW7.4 kmh NNW 8.1 mph13.0 kmh 29.95 in1014.2 mb - 0.01 in0.3 mm 0.10 in2.5 mm
11:00 AM 51.4°F10.8°C 51.4°F10.8°C 100% 9.2 mph NW14.8 kmh NW 11.5 mph18.5 kmh 29.95 in1014.2 mb - 0.03 in0.8 mm 0.10 in2.5 mm
10:50 AM 51.4°F10.8°C 51.4°F10.8°C 100% 9.2 mph NNW14.8 kmh NNW 17.3 mph27.8 kmh 29.96 in1014.6 mb - 0.04 in1.0 mm 0.10 in2.5 mm
10:40 AM 51.4°F10.8°C 51.4°F10.8°C 100% 8.1 mph NNW13.0 kmh NNW 12.7 mph20.4 kmh 29.95 in1014.2 mb - 0.05 in1.3 mm 0.10 in2.5 mm
10:30 AM 51.4°F10.8°C 51.4°F10.8°C 100% 6.9 mph NNW11.1 kmh NNW 9.2 mph14.8 kmh 29.95 in1014.2 mb - 0.05 in1.3 mm 0.10 in2.5 mm
10:20 AM 51.4°F10.8°C 51.4°F10.8°C 100% 6.9 mph N11.1 kmh N 11.5 mph18.5 kmh 29.95 in1014.2 mb - 0.06 in1.5 mm 0.10 in2.5 mm
10:10 AM 51.4°F10.8°C 51.4°F10.8°C 100% 8.1 mph NNW13.0 kmh NNW 19.6 mph31.5 kmh 29.95 in1014.2 mb - 0.06 in1.5 mm 0.09 in2.3 mm
10:00 AM 51.4°F10.8°C 51.4°F10.8°C 100% 9.2 mph NNW14.8 kmh NNW 12.7 mph20.4 kmh 29.94 in1013.9 mb - 0.05 in1.3 mm 0.07 in1.8 mm
09:50 AM 51.4°F10.8°C 51.4°F10.8°C 100% 6.9 mph NNW11.1 kmh NNW 9.2 mph14.8 kmh 29.94 in1013.9 mb - 0.04 in1.0 mm 0.06 in1.5 mm
09:40 AM 51.4°F10.8°C 51.4°F10.8°C 100% 6.9 mph NW11.1 kmh NW 9.2 mph14.8 kmh 29.93 in1013.5 mb - 0.03 in0.8 mm 0.05 in1.3 mm
09:30 AM 51.4°F10.8°C 51.4°F10.8°C 100% 8.1 mph NW13.0 kmh NW 11.5 mph18.5 kmh 29.93 in1013.5 mb - 0.03 in0.8 mm 0.05 in1.3 mm
09:20 AM 51.4°F10.8°C 51.4°F10.8°C 100% 8.1 mph NW13.0 kmh NW 11.5 mph18.5 kmh 29.94 in1013.9 mb - 0.02 in0.5 mm 0.04 in1.0 mm
09:10 AM 51.4°F10.8°C 51.4°F10.8°C 100% 6.9 mph NW11.1 kmh NW 11.5 mph18.5 kmh 29.94 in1013.9 mb - 0.01 in0.3 mm 0.03 in0.8 mm
09:00 AM 51.4°F10.8°C 51.4°F10.8°C 100% 4.6 mph NW7.4 kmh NW 6.9 mph11.1 kmh 29.94 in1013.9 mb - 0.00 in0.0 mm 0.02 in0.5 mm
08:50 AM 51.4°F10.8°C 51.4°F10.8°C 100% 3.5 mph NW5.6 kmh NW 4.6 mph7.4 kmh 29.93 in1013.5 mb - 0.00 in0.0 mm 0.02 in0.5 mm
08:40 AM 51.4°F10.8°C 51.4°F10.8°C 100% 8.1 mph NW13.0 kmh NW 10.4 mph16.7 kmh 29.93 in1013.5 mb - 0.00 in0.0 mm 0.02 in0.5 mm
08:30 AM 51.4°F10.8°C 51.4°F10.8°C 100% 9.2 mph NW14.8 kmh NW 11.5 mph18.5 kmh 29.92 in1013.2 mb - 0.00 in0.0 mm 0.02 in0.5 mm
08:20 AM 51.4°F10.8°C 51.4°F10.8°C 100% 8.1 mph NW13.0 kmh NW 10.4 mph16.7 kmh 29.92 in1013.2 mb - 0.01 in0.3 mm 0.02 in0.5 mm
08:10 AM 51.4°F10.8°C 51.4°F10.8°C 100% 6.9 mph NW11.1 kmh NW 9.2 mph14.8 kmh 29.93 in1013.5 mb - 0.01 in0.3 mm 0.02 in0.5 mm
08:00 AM 51.4°F10.8°C 51.4°F10.8°C 100% 8.1 mph NW13.0 kmh NW 11.5 mph18.5 kmh 29.95 in1014.2 mb - 0.01 in0.3 mm 0.02 in0.5 mm
07:50 AM 51.4°F10.8°C 51.4°F10.8°C 100% 8.1 mph NW13.0 kmh NW 10.4 mph16.7 kmh 29.95 in1014.2 mb - 0.01 in0.3 mm 0.02 in0.5 mm
07:40 AM 51.4°F10.8°C 51.4°F10.8°C 100% 8.1 mph NW13.0 kmh NW 10.4 mph16.7 kmh 29.96 in1014.6 mb - 0.01 in0.3 mm 0.02 in0.5 mm
07:30 AM 51.4°F10.8°C 51.4°F10.8°C 100% 6.9 mph NW11.1 kmh NW 8.1 mph13.0 kmh 29.96 in1014.6 mb - 0.01 in0.3 mm 0.02 in0.5 mm
07:20 AM 51.4°F10.8°C 51.4°F10.8°C 100% 9.2 mph NW14.8 kmh NW 11.5 mph18.5 kmh 29.97 in1014.9 mb - 0.00 in0.0 mm 0.01 in0.3 mm
07:10 AM 51.4°F10.8°C 51.4°F10.8°C 100% 6.9 mph NW11.1 kmh NW 9.2 mph14.8 kmh 29.97 in1014.9 mb - 0.00 in0.0 mm 0.01 in0.3 mm
07:00 AM 51.4°F10.8°C 51.4°F10.8°C 100% 4.6 mph NW7.4 kmh NW 8.1 mph13.0 kmh 29.97 in1014.9 mb - 0.00 in0.0 mm 0.01 in0.3 mm
06:50 AM 51.4°F10.8°C 51.4°F10.8°C 100% 6.9 mph NW11.1 kmh NW 10.4 mph16.7 kmh 29.98 in1015.2 mb - 0.00 in0.0 mm 0.01 in0.3 mm
06:40 AM 51.4°F10.8°C 51.4°F10.8°C 100% 6.9 mph NW11.1 kmh NW 10.4 mph16.7 kmh 29.98 in1015.2 mb - 0.00 in0.0 mm 0.01 in0.3 mm
06:30 AM 51.4°F10.8°C 51.4°F10.8°C 100% 9.2 mph NW14.8 kmh NW 11.5 mph18.5 kmh 29.98 in1015.2 mb - 0.00 in0.0 mm 0.01 in0.3 mm
06:20 AM 51.4°F10.8°C 51.4°F10.8°C 100% 5.8 mph NW9.3 kmh NW 10.4 mph16.7 kmh 29.98 in1015.2 mb - 0.00 in0.0 mm 0.01 in0.3 mm
06:10 AM 51.4°F10.8°C 51.4°F10.8°C 100% 5.8 mph NW9.3 kmh NW 9.2 mph14.8 kmh 29.98 in1015.2 mb - 0.00 in0.0 mm 0.01 in0.3 mm
06:00 AM 51.4°F10.8°C 51.4°F10.8°C 100% 4.6 mph NW7.4 kmh NW 8.1 mph13.0 kmh 29.99 in1015.6 mb - 0.00 in0.0 mm 0.01 in0.3 mm
05:50 AM 51.4°F10.8°C 51.4°F10.8°C 100% 3.5 mph NW5.6 kmh NW 6.9 mph11.1 kmh 29.99 in1015.6 mb - 0.00 in0.0 mm 0.01 in0.3 mm
05:40 AM 51.4°F10.8°C 51.4°F10.8°C 100% 2.3 mph NW3.7 kmh NW 3.5 mph5.6 kmh 30.00 in1015.9 mb - 0.00 in0.0 mm 0.01 in0.3 mm
05:30 AM 51.4°F10.8°C 51.4°F10.8°C 100% 2.3 mph NW3.7 kmh NW 3.5 mph5.6 kmh 30.00 in1015.9 mb - 0.00 in0.0 mm 0.01 in0.3 mm
05:20 AM 51.4°F10.8°C 51.4°F10.8°C 100% 3.5 mph NW5.6 kmh NW 4.6 mph7.4 kmh 30.00 in1015.9 mb - 0.00 in0.0 mm 0.01 in0.3 mm
05:10 AM 51.4°F10.8°C 51.4°F10.8°C 100% 2.3 mph NW3.7 kmh NW 3.5 mph5.6 kmh 30.00 in1015.9 mb - 0.00 in0.0 mm 0.01 in0.3 mm
05:00 AM 51.4°F10.8°C 51.4°F10.8°C 100% 2.3 mph NW3.7 kmh NW 3.5 mph5.6 kmh 30.00 in1015.9 mb - 0.00 in0.0 mm 0.01 in0.3 mm
04:50 AM 51.4°F10.8°C 51.4°F10.8°C 100% 2.3 mph NW3.7 kmh NW 3.5 mph5.6 kmh 30.00 in1015.9 mb - 0.00 in0.0 mm 0.01 in0.3 mm
04:40 AM 51.4°F10.8°C 51.4°F10.8°C 100% 2.3 mph NW3.7 kmh NW 3.5 mph5.6 kmh 30.01 in1016.3 mb - 0.00 in0.0 mm 0.01 in0.3 mm
04:30 AM 51.4°F10.8°C 51.4°F10.8°C 100% 2.3 mph NW3.7 kmh NW 3.5 mph5.6 kmh 30.01 in1016.3 mb - 0.00 in0.0 mm 0.01 in0.3 mm
04:20 AM 51.4°F10.8°C 51.4°F10.8°C 100% 2.3 mph NW3.7 kmh NW 3.5 mph5.6 kmh 30.01 in1016.3 mb - 0.00 in0.0 mm 0.01 in0.3 mm
04:10 AM 51.4°F10.8°C 51.4°F10.8°C 100% 1.2 mph NW1.9 kmh NW 2.3 mph3.7 kmh 30.02 in1016.6 mb - 0.00 in0.0 mm 0.01 in0.3 mm
04:00 AM 51.4°F10.8°C 51.4°F10.8°C 100% 2.3 mph NW3.7 kmh NW 3.5 mph5.6 kmh 30.02 in1016.6 mb - 0.00 in0.0 mm 0.01 in0.3 mm
03:50 AM 51.4°F10.8°C 51.4°F10.8°C 100% 3.5 mph NW5.6 kmh NW 4.6 mph7.4 kmh 30.02 in1016.6 mb - 0.00 in0.0 mm 0.01 in0.3 mm
03:40 AM 51.4°F10.8°C 51.4°F10.8°C 100% 3.5 mph NW5.6 kmh NW 6.9 mph11.1 kmh 30.02 in1016.6 mb - 0.00 in0.0 mm 0.01 in0.3 mm
03:30 AM 51.4°F10.8°C 51.4°F10.8°C 100% 3.5 mph NW5.6 kmh NW 4.6 mph7.4 kmh 30.02 in1016.6 mb - 0.00 in0.0 mm 0.01 in0.3 mm
03:20 AM 51.4°F10.8°C 51.4°F10.8°C 100% 3.5 mph NW5.6 kmh NW 3.5 mph5.6 kmh 30.02 in1016.6 mb - 0.00 in0.0 mm 0.01 in0.3 mm
03:10 AM 51.4°F10.8°C 51.4°F10.8°C 100% 3.5 mph NW5.6 kmh NW 3.5 mph5.6 kmh 30.02 in1016.6 mb - 0.00 in0.0 mm 0.01 in0.3 mm
03:00 AM 51.4°F10.8°C 51.4°F10.8°C 100% 3.5 mph NW5.6 kmh NW 3.5 mph5.6 kmh 30.02 in1016.6 mb - 0.00 in0.0 mm 0.01 in0.3 mm
02:50 AM 51.4°F10.8°C 51.4°F10.8°C 100% 2.3 mph NW3.7 kmh NW 3.5 mph5.6 kmh 30.03 in1016.9 mb - 0.00 in0.0 mm 0.01 in0.3 mm
02:40 AM 51.4°F10.8°C 51.4°F10.8°C 100% 4.6 mph NW7.4 kmh NW 6.9 mph11.1 kmh 30.02 in1016.6 mb - 0.00 in0.0 mm 0.01 in0.3 mm
02:30 AM 51.4°F10.8°C 51.4°F10.8°C 100% 3.5 mph NW5.6 kmh NW 4.6 mph7.4 kmh 30.02 in1016.6 mb - 0.00 in0.0 mm 0.01 in0.3 mm
02:20 AM 51.4°F10.8°C 51.4°F10.8°C 100% 4.6 mph NW7.4 kmh NW 4.6 mph7.4 kmh 30.03 in1016.9 mb - 0.00 in0.0 mm 0.01 in0.3 mm
02:10 AM 51.4°F10.8°C 51.4°F10.8°C 100% 3.5 mph NW5.6 kmh NW 6.9 mph11.1 kmh 30.02 in1016.6 mb - 0.00 in0.0 mm 0.01 in0.3 mm
02:00 AM 51.4°F10.8°C 51.4°F10.8°C 100% 4.6 mph NW7.4 kmh NW 6.9 mph11.1 kmh 30.02 in1016.6 mb - 0.01 in0.3 mm 0.01 in0.3 mm
01:50 AM 51.4°F10.8°C 51.4°F10.8°C 100% 4.6 mph NW7.4 kmh NW 6.9 mph11.1 kmh 30.02 in1016.6 mb - 0.01 in0.3 mm 0.01 in0.3 mm
01:40 AM 51.4°F10.8°C 51.4°F10.8°C 100% 4.6 mph NW7.4 kmh NW 8.1 mph13.0 kmh 30.02 in1016.6 mb - 0.01 in0.3 mm 0.01 in0.3 mm
01:30 AM 51.4°F10.8°C 51.4°F10.8°C 100% 5.8 mph NW9.3 kmh NW 8.1 mph13.0 kmh 30.02 in1016.6 mb - 0.01 in0.3 mm 0.01 in0.3 mm
01:20 AM 51.4°F10.8°C 51.4°F10.8°C 100% 3.5 mph NW5.6 kmh NW 4.6 mph7.4 kmh 30.02 in1016.6 mb - 0.01 in0.3 mm 0.01 in0.3 mm
01:10 AM 51.4°F10.8°C 51.4°F10.8°C 100% 4.6 mph NW7.4 kmh NW 4.6 mph7.4 kmh 30.03 in1016.9 mb - 0.01 in0.3 mm 0.01 in0.3 mm
01:00 AM 51.4°F10.8°C 51.4°F10.8°C 100% 3.5 mph NW5.6 kmh NW 6.9 mph11.1 kmh 30.03 in1016.9 mb - 0.00 in0.0 mm 0.00 in0.0 mm
12:50 AM 51.4°F10.8°C 51.4°F10.8°C 100% 4.6 mph NW7.4 kmh NW 8.1 mph13.0 kmh 30.03 in1016.9 mb - 0.00 in0.0 mm 0.00 in0.0 mm
12:40 AM 51.4°F10.8°C 51.4°F10.8°C 100% 5.8 mph NW9.3 kmh NW 8.1 mph13.0 kmh 30.04 in1017.3 mb - 0.00 in0.0 mm 0.00 in0.0 mm
12:30 AM 51.4°F10.8°C 51.4°F10.8°C 100% 4.6 mph NW7.4 kmh NW 4.6 mph7.4 kmh 30.04 in1017.3 mb - 0.00 in0.0 mm 0.00 in0.0 mm
12:20 AM 51.4°F10.8°C 51.4°F10.8°C 100% 5.8 mph NW9.3 kmh NW 6.9 mph11.1 kmh 30.04 in1017.3 mb - 0.00 in0.0 mm 0.00 in0.0 mm
12:10 AM 51.4°F10.8°C 51.4°F10.8°C 100% 4.6 mph NW7.4 kmh NW 4.6 mph7.4 kmh 30.05 in1017.6 mb - 0.00 in0.0 mm 0.00 in0.0 mm
12:00 AM 51.4°F10.8°C 51.4°F10.8°C 100% 3.5 mph NW5.6 kmh NW 3.5 mph5.6 kmh 30.04 in1017.3 mb - 0.00 in0.0 mm 0.00 in0.0 mm